Time;durP1;ratioP1;P1;durP2;ratioP2;P2;SDS_P1;SDS_P2;PMS_P1;PMS_P2;Temp;Humidity;BMP_temperature;BMP_pressure;BME280_temperature;BME280_humidity;BME280_pressure;Samples;Min_cycle;Max_cycle;Signal;HPM_P1;HPM_P2
2023/09/15 04:22:32;;;;;;;5.75;2.97;;;;;;;11.54;100.00;100457.53;5089195;28;20332;-69
2023/09/15 04:24:59;;;;;;;4.43;2.70;;;;;;;11.55;100.00;100460.06;5088088;28;20063;-69
2023/09/15 04:27:25;;;;;;;6.07;2.95;;;;;;;11.55;100.00;100453.88;5098783;28;20048;-69
2023/09/15 04:29:55;;;;;;;4.82;2.88;;;;;;;11.59;100.00;100461.34;5090117;28;20032;-69
2023/09/15 04:32:26;;;;;;;5.70;3.20;;;;;;;11.53;100.00;100455.88;5087270;28;20036;-69
2023/09/15 04:34:52;;;;;;;5.30;3.00;;;;;;;11.48;100.00;100451.09;5087861;28;20032;-68
2023/09/15 04:37:21;;;;;;;4.72;2.92;;;;;;;11.51;100.00;100453.41;5089151;28;20107;-69
2023/09/15 04:39:51;;;;;;;5.03;2.85;;;;;;;11.52;100.00;100449.72;5089155;28;20144;-69
2023/09/15 04:42:17;;;;;;;8.23;2.65;;;;;;;11.50;100.00;100449.06;5088013;28;20097;-69
2023/09/15 04:44:43;;;;;;;4.45;2.70;;;;;;;11.49;100.00;100447.41;5088952;28;20044;-69
2023/09/15 04:47:09;;;;;;;3.67;2.63;;;;;;;11.53;100.00;100445.22;5087313;28;20487;-68
2023/09/15 04:49:35;;;;;;;4.75;2.50;;;;;;;11.46;100.00;100445.06;5087761;28;20112;-69
2023/09/15 04:52:01;;;;;;;5.22;2.63;;;;;;;11.43;100.00;100440.09;5088708;28;20040;-69
2023/09/15 04:54:28;;;;;;;4.63;2.83;;;;;;;11.41;100.00;100447.47;5087598;28;20040;-69
2023/09/15 04:56:54;;;;;;;4.77;2.27;;;;;;;11.44;100.00;100446.25;5087399;28;20065;-69
2023/09/15 04:59:20;;;;;;;3.78;2.70;;;;;;;11.42;100.00;100449.13;5087485;28;20395;-69
2023/09/15 05:01:46;;;;;;;4.38;2.65;;;;;;;11.38;100.00;100451.28;5087322;28;20449;-69
2023/09/15 05:04:15;;;;;;;6.25;2.45;;;;;;;11.36;100.00;100441.81;5087140;28;20036;-69
2023/09/15 05:06:41;;;;;;;5.15;3.03;;;;;;;11.39;100.00;100444.09;5087327;28;20459;-69
2023/09/15 05:09:10;;;;;;;7.40;2.80;;;;;;;11.27;100.00;100442.81;5088605;28;20069;-69
2023/09/15 05:11:39;;;;;;;6.32;2.83;;;;;;;11.30;100.00;100451.31;5087134;28;20027;-69
2023/09/15 05:14:04;;;;;;;5.75;2.63;;;;;;;11.35;100.00;100454.31;5087020;28;20556;-69
2023/09/15 05:16:30;;;;;;;4.47;2.55;;;;;;;11.36;100.00;100455.13;5087070;28;20036;-69
2023/09/15 05:18:56;;;;;;;4.60;2.70;;;;;;;11.38;100.00;100458.47;5086980;28;20031;-69
2023/09/15 05:21:22;;;;;;;4.93;2.67;;;;;;;11.42;100.00;100451.78;5086880;28;20032;-69
2023/09/15 05:23:47;;;;;;;4.93;2.70;;;;;;;11.33;100.00;100452.81;5086681;28;20040;-69
2023/09/15 05:26:14;;;;;;;3.80;2.80;;;;;;;11.44;100.00;100451.59;5086895;28;20032;-69
2023/09/15 05:28:39;;;;;;;4.07;2.47;;;;;;;11.33;100.00;100448.31;5086977;28;20044;-69
2023/09/15 05:31:05;;;;;;;6.00;2.45;;;;;;;11.35;100.00;100453.47;5088160;28;20529;-69
2023/09/15 05:33:31;;;;;;;3.67;2.40;;;;;;;11.39;100.00;100457.44;5075154;28;20654;-69
2023/09/15 05:35:57;;;;;;;5.95;3.53;;;;;;;11.43;100.00;100457.94;5073167;28;20048;-69
2023/09/15 05:38:23;;;;;;;6.32;2.88;;;;;;;11.47;100.00;100461.91;5073343;28;20028;-69
2023/09/15 05:40:49;;;;;;;3.53;2.53;;;;;;;11.49;100.00;100465.25;5064433;28;20098;-69
2023/09/15 05:43:19;;;;;;;5.32;2.53;;;;;;;11.47;100.00;100461.91;5052958;28;20036;-69
2023/09/15 05:45:45;;;;;;;8.95;3.28;;;;;;;11.52;100.00;100468.38;5054182;28;20075;-68
2023/09/15 05:48:13;;;;;;;5.72;2.83;;;;;;;11.56;100.00;100474.22;5054278;28;20064;-68
2023/09/15 05:50:39;;;;;;;6.65;2.97;;;;;;;11.58;100.00;100467.69;5053183;28;20037;-69
2023/09/15 05:53:05;;;;;;;4.85;2.60;;;;;;;11.65;100.00;100479.34;5053925;28;20123;-69
2023/09/15 05:55:31;;;;;;;4.50;3.22;;;;;;;11.67;100.00;100479.16;5054129;28;20033;-69
2023/09/15 05:57:56;;;;;;;6.07;2.97;;;;;;;11.71;100.00;100485.81;5054356;28;20036;-69
2023/09/15 06:00:22;;;;;;;5.32;3.00;;;;;;;11.76;100.00;100477.28;5054240;28;20037;-69
2023/09/15 06:02:47;;;;;;;4.70;3.08;;;;;;;11.78;100.00;100477.94;5054128;28;20119;-67
2023/09/15 06:05:13;;;;;;;3.85;2.78;;;;;;;11.81;100.00;100486.47;5054278;28;20408;-67
2023/09/15 06:07:38;;;;;;;3.80;2.72;;;;;;;11.85;100.00;100482.44;5054088;28;20044;-69
2023/09/15 06:10:08;;;;;;;4.95;3.13;;;;;;;11.90;100.00;100484.56;5054055;28;20072;-69
2023/09/15 06:12:33;;;;;;;5.40;3.25;;;;;;;11.93;100.00;100481.53;5053745;28;20050;-68
2023/09/15 06:14:58;;;;;;;4.88;3.20;;;;;;;11.99;100.00;100483.50;5053870;28;20033;-68
2023/09/15 06:17:24;;;;;;;4.88;3.08;;;;;;;12.02;100.00;100483.16;5053741;28;20098;-68
2023/09/15 06:19:50;;;;;;;5.70;2.78;;;;;;;12.10;100.00;100479.59;5053817;28;20071;-69
2023/09/15 06:22:15;;;;;;;8.15;3.08;;;;;;;12.13;100.00;100477.44;5053412;28;20059;-69
2023/09/15 06:24:41;;;;;;;5.22;3.03;;;;;;;12.19;100.00;100476.72;5053731;28;20099;-69
2023/09/15 06:27:06;;;;;;;7.22;3.17;;;;;;;12.25;100.00;100472.47;5053635;28;20033;-68
2023/09/15 06:29:31;;;;;;;6.55;3.33;;;;;;;12.32;100.00;100472.59;5053625;28;20041;-68
2023/09/15 06:31:57;;;;;;;4.65;3.35;;;;;;;12.39;100.00;100465.56;5053466;28;20043;-68
2023/09/15 06:34:22;;;;;;;5.15;3.00;;;;;;;12.45;100.00;100470.16;5053354;28;20041;-68
2023/09/15 06:36:47;;;;;;;4.13;2.50;;;;;;;12.54;100.00;100473.59;5053313;28;20045;-68
2023/09/15 06:39:13;;;;;;;4.85;2.47;;;;;;;12.61;100.00;100472.69;5053545;28;20033;-68
2023/09/15 06:41:38;;;;;;;4.13;2.92;;;;;;;12.69;100.00;100477.97;5053429;28;20116;-68
2023/09/15 06:44:04;;;;;;;8.18;3.45;;;;;;;12.74;100.00;100478.25;5052169;28;20045;-68
2023/09/15 06:46:29;;;;;;;6.90;3.45;;;;;;;12.84;100.00;100477.97;5053169;28;20045;-67
2023/09/15 06:48:55;;;;;;;4.57;2.60;;;;;;;12.92;100.00;100469.06;5053219;28;20086;-68
2023/09/15 06:51:20;;;;;;;8.23;2.83;;;;;;;12.98;100.00;100468.34;5053146;28;20076;-68
2023/09/15 06:53:46;;;;;;;3.50;2.72;;;;;;;13.08;100.00;100462.69;5052928;28;20044;-68
2023/09/15 06:56:11;;;;;;;5.95;3.08;;;;;;;13.17;100.00;100473.13;5053044;28;20476;-69
2023/09/15 06:58:36;;;;;;;6.18;2.88;;;;;;;13.26;100.00;100468.56;5053162;28;20029;-69
2023/09/15 07:01:03;;;;;;;4.78;3.30;;;;;;;13.30;100.00;100462.66;5053027;28;20533;-69
2023/09/15 07:03:29;;;;;;;4.68;3.25;;;;;;;13.41;100.00;100464.00;5052681;28;20119;-69
2023/09/15 07:05:54;;;;;;;4.60;3.15;;;;;;;13.46;100.00;100460.78;5052779;28;20175;-68
2023/09/15 07:08:19;;;;;;;5.63;3.05;;;;;;;13.58;100.00;100459.28;5052736;28;20135;-68
2023/09/15 07:10:50;;;;;;;5.43;3.03;;;;;;;13.70;100.00;100456.97;5052801;28;20155;-69
2023/09/15 07:13:16;;;;;;;4.78;3.20;;;;;;;13.77;100.00;100463.22;5052582;28;20052;-68
2023/09/15 07:15:41;;;;;;;4.28;3.00;;;;;;;13.89;100.00;100463.53;5052573;28;20052;-68
2023/09/15 07:18:07;;;;;;;5.15;3.28;;;;;;;13.96;100.00;100457.25;5052743;28;20037;-68
2023/09/15 07:20:32;;;;;;;7.97;3.25;;;;;;;14.07;100.00;100454.03;5061023;28;20031;-68
2023/09/15 07:22:58;;;;;;;5.28;3.30;;;;;;;14.10;100.00;100453.69;5072417;28;20037;-69
2023/09/15 07:25:26;;;;;;;7.55;3.40;;;;;;;14.21;100.00;100460.34;5072475;28;20040;-69
2023/09/15 07:27:52;;;;;;;5.78;3.95;;;;;;;14.32;100.00;100459.84;5072454;28;20390;-69
2023/09/15 07:30:17;;;;;;;5.47;3.10;;;;;;;14.45;100.00;100452.97;5072327;28;20115;-69
2023/09/15 07:32:43;;;;;;;4.75;3.05;;;;;;;14.53;100.00;100458.19;5072207;28;20131;-68
2023/09/15 07:35:12;;;;;;;4.47;2.70;;;;;;;14.60;100.00;100451.88;5072148;28;20067;-68
2023/09/15 07:37:41;;;;;;;4.80;3.10;;;;;;;14.66;100.00;100451.09;5072320;28;20040;-69
2023/09/15 07:40:07;;;;;;;5.70;3.10;;;;;;;14.80;100.00;100453.88;5072235;28;20040;-56
2023/09/15 07:42:33;;;;;;;6.63;2.85;;;;;;;14.86;100.00;100445.03;5071974;28;20028;-57
2023/09/15 07:44:59;;;;;;;5.22;3.13;;;;;;;14.98;100.00;100450.69;5072119;28;20090;-58
2023/09/15 07:47:25;;;;;;;3.67;2.80;;;;;;;15.02;100.00;100444.75;5072047;28;20043;-56
2023/09/15 07:49:51;;;;;;;8.40;3.10;;;;;;;15.13;100.00;100441.50;5071863;28;20381;-54
2023/09/15 07:52:18;;;;;;;3.88;2.83;;;;;;;15.26;100.00;100439.91;5071738;28;20037;-57
2023/09/15 07:54:44;;;;;;;5.50;2.92;;;;;;;15.36;100.00;100443.06;5072115;28;20036;-54
2023/09/15 07:57:09;;;;;;;6.28;2.78;;;;;;;15.47;100.00;100431.75;5071747;28;20042;-55
2023/09/15 07:59:35;;;;;;;5.15;2.60;;;;;;;15.57;100.00;100437.56;5072198;28;20120;-58
2023/09/15 08:02:01;;;;;;;4.88;2.70;;;;;;;15.65;100.00;100434.75;5071963;28;20090;-53
2023/09/15 08:04:26;;;;;;;5.32;2.65;;;;;;;15.73;100.00;100426.50;5071761;28;20162;-57
2023/09/15 08:06:52;;;;;;;4.82;3.10;;;;;;;15.82;100.00;100432.50;5071825;28;20075;-57
2023/09/15 08:09:18;;;;;;;5.68;2.30;;;;;;;15.89;100.00;100427.97;5071921;28;20040;-57
2023/09/15 08:11:43;;;;;;;5.72;2.80;;;;;;;16.00;100.00;100427.38;5071814;28;20184;-57
2023/09/15 08:14:08;;;;;;;4.13;2.67;;;;;;;16.17;100.00;100430.53;5071592;28;20044;-58
2023/09/15 08:16:34;;;;;;;3.60;2.47;;;;;;;16.29;100.00;100430.72;5071799;28;20037;-57
2023/09/15 08:19:00;;;;;;;4.50;2.80;;;;;;;16.42;99.38;100435.28;5071821;28;20037;-53
2023/09/15 08:21:26;;;;;;;3.78;2.30;;;;;;;16.62;97.92;100432.56;5071714;28;20395;-55
2023/09/15 08:23:51;;;;;;;6.38;2.55;;;;;;;16.66;97.70;100437.34;5071609;28;20050;-59
2023/09/15 08:26:17;;;;;;;5.82;2.65;;;;;;;16.82;96.49;100422.66;5071741;28;20044;-54
2023/09/15 08:28:42;;;;;;;4.78;2.80;;;;;;;16.88;96.78;100421.81;5071758;28;20477;-57
2023/09/15 08:31:09;;;;;;;5.00;2.95;;;;;;;17.08;95.86;100421.75;5071747;28;20047;-55
2023/09/15 08:33:34;;;;;;;4.72;2.45;;;;;;;17.21;95.96;100423.59;5071361;28;20036;-58
2023/09/15 08:36:00;;;;;;;4.97;2.47;;;;;;;17.26;94.55;100427.28;5071665;28;20414;-56
2023/09/15 08:38:28;;;;;;;6.25;2.72;;;;;;;17.35;93.63;100422.53;5071643;28;20029;-56
2023/09/15 08:41:01;;;;;;;3.45;2.65;;;;;;;17.47;94.21;100414.56;5071602;28;20044;-57
2023/09/15 08:43:27;;;;;;;3.35;2.70;;;;;;;17.52;94.21;100410.22;5071394;28;20059;-56
2023/09/15 08:45:53;;;;;;;6.05;3.13;;;;;;;17.68;92.52;100411.59;5071486;28;20041;-59
2023/09/15 08:48:32;;;;;;;3.95;2.55;;;;;;;17.84;92.25;100415.66;5071518;28;20046;-56
2023/09/15 08:50:58;;;;;;;7.45;3.25;;;;;;;17.98;91.60;100414.53;5071479;28;20487;-56
2023/09/15 08:53:24;;;;;;;3.63;2.60;;;;;;;18.04;91.44;100404.75;5071218;28;20049;-55
2023/09/15 08:55:50;;;;;;;3.13;2.55;;;;;;;18.18;90.41;100404.44;5071443;28;20044;-55
2023/09/15 08:58:17;;;;;;;4.10;2.60;;;;;;;18.27;90.99;100406.88;5071358;28;20098;-57
2023/09/15 09:00:42;;;;;;;5.07;2.50;;;;;;;18.39;90.37;100407.81;5071420;28;20059;-56
2023/09/15 09:03:12;;;;;;;4.85;2.88;;;;;;;18.53;89.64;100409.34;5071249;28;20087;-61
2023/09/15 09:05:40;;;;;;;4.80;3.28;;;;;;;18.60;88.86;100398.50;5071317;28;20036;-59
2023/09/15 09:08:08;;;;;;;2.65;2.35;;;;;;;18.74;88.25;100394.66;5073235;28;20457;-56
2023/09/15 09:10:33;;;;;;;3.55;2.42;;;;;;;18.87;87.83;100399.09;5075181;28;20041;-56
2023/09/15 09:12:59;;;;;;;4.13;2.60;;;;;;;18.98;87.34;100395.66;5074843;28;20040;-59
2023/09/15 09:15:27;;;;;;;5.80;2.80;;;;;;;19.09;87.02;100392.19;5075018;28;20072;-58
2023/09/15 09:17:52;;;;;;;3.53;2.67;;;;;;;19.27;86.04;100394.06;5074994;28;20040;-58
2023/09/15 09:20:26;;;;;;;3.95;2.55;;;;;;;19.43;85.03;100387.19;5074793;28;20036;-57
2023/09/15 09:22:52;;;;;;;3.95;2.72;;;;;;;19.57;83.86;100390.56;5074683;28;20110;-58
2023/09/15 09:25:33;;;;;;;5.03;2.30;;;;;;;19.76;83.18;100390.31;5074698;28;20043;-58
2023/09/15 09:27:59;;;;;;;3.15;2.50;;;;;;;19.86;82.56;100386.22;5074755;28;20089;-55
2023/09/15 09:30:29;;;;;;;3.83;2.35;;;;;;;20.01;82.46;100392.84;5074646;28;20090;-55
2023/09/15 09:32:58;;;;;;;4.78;2.97;;;;;;;20.24;80.69;100383.97;5074456;28;20068;-54
2023/09/15 09:35:24;;;;;;;6.88;3.10;;;;;;;20.39;78.99;100377.25;5074534;28;20097;-57
2023/09/15 09:37:52;;;;;;;5.03;2.67;;;;;;;20.62;77.65;100380.00;5074692;28;20043;-59
2023/09/15 09:40:18;;;;;;;3.42;2.50;;;;;;;20.78;76.50;100363.03;5074501;28;20039;-59
2023/09/15 09:42:45;;;;;;;3.88;2.60;;;;;;;20.92;76.03;100374.44;5074172;28;20044;-58
2023/09/15 09:45:11;;;;;;;3.20;2.45;;;;;;;21.05;75.43;100365.22;5074538;28;20068;-57
2023/09/15 09:47:37;;;;;;;3.95;2.95;;;;;;;21.16;74.04;100369.78;5074463;28;20132;-58
2023/09/15 09:50:09;;;;;;;4.60;2.65;;;;;;;21.36;74.08;100358.56;5074479;28;20479;-57
2023/09/15 09:52:35;;;;;;;3.60;2.60;;;;;;;21.66;71.51;100370.00;5074065;28;20041;-54
2023/09/15 09:55:04;;;;;;;3.57;2.60;;;;;;;21.84;70.84;100360.00;5074279;28;20047;-56
2023/09/15 09:57:30;;;;;;;4.47;2.47;;;;;;;22.15;68.67;100370.31;5074233;28;20185;-58
2023/09/15 09:59:55;;;;;;;6.80;2.78;;;;;;;22.48;67.43;100361.34;5074280;28;20060;-57
2023/09/15 10:02:20;;;;;;;3.28;2.30;;;;;;;22.89;64.74;100353.00;5073988;28;20044;-57
2023/09/15 10:04:46;;;;;;;4.60;2.22;;;;;;;23.47;62.50;100340.59;5074122;28;20167;-58
2023/09/15 10:07:12;;;;;;;3.58;1.95;;;;;;;23.99;60.63;100349.00;5074151;28;20488;-58
2023/09/15 10:09:39;;;;;;;3.65;2.40;;;;;;;24.51;57.67;100342.91;5074059;28;20112;-59
2023/09/15 10:12:04;;;;;;;4.40;2.15;;;;;;;24.95;55.19;100333.59;5073429;28;20036;-57
2023/09/15 10:14:30;;;;;;;3.42;2.20;;;;;;;25.13;53.78;100330.44;5074028;28;20063;-59
2023/09/15 10:16:57;;;;;;;2.80;1.80;;;;;;;25.60;52.86;100330.28;5073860;28;20074;-59
2023/09/15 10:19:24;;;;;;;3.17;2.20;;;;;;;25.77;52.43;100323.78;5073853;28;20048;-56
2023/09/15 10:21:50;;;;;;;2.50;2.05;;;;;;;25.90;51.96;100320.50;5073833;28;20032;-53
2023/09/15 10:24:16;;;;;;;2.42;2.05;;;;;;;26.09;50.42;100313.41;5073595;28;20079;-58
2023/09/15 10:26:42;;;;;;;2.60;2.10;;;;;;;26.21;50.60;100311.22;5073692;28;20033;-56
2023/09/15 10:29:10;;;;;;;2.78;2.00;;;;;;;26.33;49.83;100299.16;5073665;28;20045;-55
2023/09/15 10:31:35;;;;;;;3.90;2.42;;;;;;;26.79;48.25;100297.97;5073406;28;20048;-58
2023/09/15 10:34:02;;;;;;;3.65;2.08;;;;;;;26.67;48.41;100294.75;5073249;28;20041;-57
2023/09/15 10:36:31;;;;;;;2.85;2.10;;;;;;;27.00;48.12;100292.44;5073466;28;20077;-55
2023/09/15 10:38:57;;;;;;;2.53;2.10;;;;;;;27.15;48.34;100295.09;5073504;28;20036;-57
2023/09/15 10:41:27;;;;;;;3.33;1.90;;;;;;;27.65;45.89;100295.88;5073347;28;20028;-58
2023/09/15 10:43:53;;;;;;;3.40;1.85;;;;;;;27.71;46.08;100286.56;5073241;28;20479;-57
2023/09/15 10:46:19;;;;;;;3.03;2.05;;;;;;;27.97;45.08;100294.53;5073272;28;20032;-56
2023/09/15 10:48:51;;;;;;;3.53;2.03;;;;;;;28.47;44.67;100292.44;5073291;28;20041;-58
2023/09/15 10:51:22;;;;;;;2.80;1.70;;;;;;;28.99;43.35;100282.50;5073114;28;20047;-58
2023/09/15 10:53:50;;;;;;;3.72;1.90;;;;;;;28.75;42.58;100280.56;5072962;28;20025;-58
2023/09/15 10:56:19;;;;;;;2.83;2.05;;;;;;;28.70;42.83;100286.13;5073019;28;20036;-58
2023/09/15 10:58:48;;;;;;;3.72;2.33;;;;;;;28.68;42.97;100271.88;5073107;28;20115;-58
2023/09/15 11:01:14;;;;;;;2.67;1.80;;;;;;;28.29;43.30;100272.84;5072973;28;20371;-58
2023/09/15 11:03:41;;;;;;;3.20;2.57;;;;;;;29.07;42.48;100257.97;5072759;28;20036;-59
2023/09/15 11:06:10;;;;;;;2.00;1.80;;;;;;;28.97;42.38;100255.38;5072675;28;20037;-57
2023/09/15 11:08:36;;;;;;;2.88;2.10;;;;;;;29.16;41.80;100252.66;5072851;28;20040;-56
2023/09/15 11:11:11;;;;;;;3.28;2.03;;;;;;;28.99;41.97;100249.59;5072712;28;20090;-57
2023/09/15 11:13:38;;;;;;;2.42;1.80;;;;;;;29.81;41.19;100258.22;5071140;28;20101;-59
2023/09/15 11:16:05;;;;;;;3.80;2.33;;;;;;;29.68;41.20;100250.78;5062591;28;20108;-58
2023/09/15 11:18:35;;;;;;;2.15;1.83;;;;;;;30.30;39.87;100248.56;5061209;28;20017;-57
2023/09/15 11:21:01;;;;;;;3.28;1.92;;;;;;;30.29;39.61;100249.69;5061298;28;20029;-58
2023/09/15 11:23:28;;;;;;;2.53;1.92;;;;;;;30.68;39.49;100246.44;5062673;28;20411;-58
2023/09/15 11:26:04;;;;;;;2.58;1.98;;;;;;;30.83;38.92;100241.75;5061009;28;20540;-57
2023/09/15 11:28:36;;;;;;;2.35;2.05;;;;;;;31.13;38.30;100241.06;5060965;28;20129;-59
2023/09/15 11:31:10;;;;;;;2.35;1.92;;;;;;;31.27;37.78;100233.59;5063110;28;20039;-59
2023/09/15 11:33:36;;;;;;;3.30;1.90;;;;;;;31.58;37.69;100230.91;5058912;28;20041;-59
2023/09/15 11:36:04;;;;;;;2.50;1.77;;;;;;;31.21;37.60;100234.81;5030806;28;20492;-57
2023/09/15 11:38:31;;;;;;;4.78;2.17;;;;;;;31.38;37.57;100225.94;5061200;28;20037;-60
2023/09/15 11:40:57;;;;;;;2.65;1.88;;;;;;;31.56;37.67;100224.94;5061264;28;20079;-58
2023/09/15 11:43:23;;;;;;;2.70;2.03;;;;;;;32.25;36.74;100226.44;5062040;28;20032;-59
2023/09/15 11:45:51;;;;;;;2.83;1.88;;;;;;;32.04;35.95;100226.19;5063037;28;20029;-60
2023/09/15 11:48:18;;;;;;;2.70;1.80;;;;;;;32.03;36.16;100208.84;5061376;28;20024;-59
2023/09/15 11:50:45;;;;;;;2.80;2.15;;;;;;;30.37;38.75;100206.94;5059724;28;20037;-60
2023/09/15 11:53:10;;;;;;;2.38;1.92;;;;;;;31.42;37.13;100213.16;5042831;28;20045;-57
2023/09/15 11:55:36;;;;;;;2.80;2.07;;;;;;;32.23;35.71;100209.41;5062551;28;20041;-59
2023/09/15 11:58:02;;;;;;;3.33;2.20;;;;;;;32.86;33.90;100200.69;5061727;28;20028;-58
2023/09/15 12:00:30;;;;;;;2.75;2.53;;;;;;;33.10;32.74;100202.16;5058366;28;20033;-60
2023/09/15 12:02:56;;;;;;;2.63;2.42;;;;;;;33.55;32.71;100201.81;5051790;28;20037;-60
2023/09/15 12:05:22;;;;;;;3.80;2.30;;;;;;;33.40;32.24;100198.44;5051886;28;20545;-55
2023/09/15 12:07:48;;;;;;;2.22;2.03;;;;;;;32.65;33.63;100194.94;5052011;28;20037;-58
2023/09/15 12:10:20;;;;;;;2.75;2.17;;;;;;;32.72;32.52;100185.38;5051951;28;20546;-58
2023/09/15 12:12:45;;;;;;;2.78;2.30;;;;;;;33.28;31.92;100183.66;5051733;28;20041;-58
2023/09/15 12:15:13;;;;;;;2.43;2.23;;;;;;;32.67;32.67;100175.34;5051921;28;20136;-58
2023/09/15 12:17:44;;;;;;;2.20;1.80;;;;;;;32.25;33.65;100177.66;5051822;28;20037;-58
2023/09/15 12:20:10;;;;;;;2.20;2.00;;;;;;;32.48;33.50;100175.63;5051791;28;20047;-59
2023/09/15 12:22:44;;;;;;;2.88;2.00;;;;;;;32.44;33.08;100162.81;5051601;28;20029;-58
2023/09/15 12:25:16;;;;;;;3.15;2.65;;;;;;;32.22;34.10;100171.97;5051717;28;20043;-59
2023/09/15 12:27:42;;;;;;;3.03;2.33;;;;;;;32.40;33.23;100162.63;5051819;28;20048;-57
2023/09/15 12:30:10;;;;;;;2.50;2.30;;;;;;;32.07;34.04;100157.50;5052125;28;20611;-58
2023/09/15 12:32:36;;;;;;;3.30;2.42;;;;;;;32.03;34.01;100155.72;5051463;28;20048;-58
2023/09/15 12:35:08;;;;;;;3.88;2.70;;;;;;;31.94;34.71;100150.16;5067117;28;20041;-61
2023/09/15 12:37:34;;;;;;;3.03;2.20;;;;;;;32.37;33.73;100152.25;5071790;28;20036;-59
2023/09/15 12:39:59;;;;;;;2.23;2.00;;;;;;;32.40;33.22;100157.94;5071773;28;20147;-59
2023/09/15 12:42:25;;;;;;;3.33;2.30;;;;;;;32.37;33.70;100149.50;5072212;28;20029;-59
2023/09/15 12:44:50;;;;;;;2.97;2.40;;;;;;;31.85;34.10;100152.88;5076026;28;20048;-60
2023/09/15 12:47:15;;;;;;;2.10;1.90;;;;;;;31.61;35.29;100144.94;5075706;28;20033;-60
2023/09/15 12:49:41;;;;;;;3.70;2.83;;;;;;;31.78;34.68;100141.50;5075682;28;20411;-58
2023/09/15 12:52:06;;;;;;;2.70;2.50;;;;;;;32.06;34.35;100142.09;5075323;28;20037;-60
2023/09/15 12:54:32;;;;;;;3.57;2.03;;;;;;;32.79;33.69;100139.66;5075493;28;20446;-58
2023/09/15 12:56:58;;;;;;;3.53;2.33;;;;;;;32.29;33.97;100133.75;5075496;28;20445;-59
2023/09/15 12:59:25;;;;;;;2.93;2.13;;;;;;;32.58;32.97;100135.91;5075715;28;20279;-58
2023/09/15 13:01:50;;;;;;;;;;;;;;;32.68;34.06;100133.66;5074712;28;20416;-58
2023/09/15 13:04:16;;;;;;;3.53;2.25;;;;;;;33.44;32.87;100130.38;5075058;28;19919;-59
2023/09/15 13:06:41;;;;;;;2.87;2.43;;;;;;;33.55;32.90;100124.50;5075081;28;20045;-58
2023/09/15 13:09:08;;;;;;;3.77;2.40;;;;;;;33.95;32.36;100120.31;5075045;28;20052;-58
2023/09/15 13:11:36;;;;;;;4.35;2.45;;;;;;;34.31;31.64;100118.97;5075146;28;20052;-58
2023/09/15 13:14:03;;;;;;;2.35;2.15;;;;;;;33.75;32.07;100116.31;5075038;28;20115;-59
2023/09/15 13:16:28;;;;;;;2.90;2.58;;;;;;;33.72;32.01;100107.91;5075033;28;20079;-58
2023/09/15 13:18:54;;;;;;;3.20;2.67;;;;;;;32.80;33.24;100101.84;5075011;28;20123;-58
2023/09/15 13:21:19;;;;;;;2.90;2.37;;;;;;;33.26;33.29;100098.44;5074812;28;20039;-60
2023/09/15 13:23:44;;;;;;;2.73;2.33;;;;;;;32.96;33.91;100100.25;5074609;28;20072;-58
2023/09/15 13:26:11;;;;;;;3.83;2.50;;;;;;;32.40;33.36;100096.50;5074811;28;20044;-59
2023/09/15 13:28:36;;;;;;;3.38;2.45;;;;;;;32.93;33.42;100092.66;5074882;28;20085;-58
2023/09/15 13:31:02;;;;;;;2.90;2.50;;;;;;;32.41;34.40;100092.63;5075001;28;20116;-58
2023/09/15 13:33:28;;;;;;;3.90;2.65;;;;;;;32.70;33.92;100091.16;5074517;28;20028;-58
2023/09/15 13:35:53;;;;;;;2.83;2.43;;;;;;;32.79;33.79;100089.22;5074666;28;20061;-59
2023/09/15 13:38:19;;;;;;;2.60;2.37;;;;;;;32.97;34.31;100088.09;5074707;28;20586;-58
2023/09/15 13:40:45;;;;;;;3.45;2.60;;;;;;;33.34;32.60;100089.31;5074706;28;20040;-59
2023/09/15 13:43:10;;;;;;;3.10;2.70;;;;;;;32.86;33.16;100089.53;5074326;28;20039;-56
2023/09/15 13:45:36;;;;;;;2.90;2.60;;;;;;;33.23;32.42;100085.28;5074427;28;20396;-58
2023/09/15 13:48:01;;;;;;;3.07;2.40;;;;;;;33.15;32.80;100084.16;5074472;28;20041;-57
2023/09/15 13:50:27;;;;;;;3.57;2.47;;;;;;;33.13;33.80;100088.41;5068081;28;20029;-57
2023/09/15 13:52:52;;;;;;;2.53;2.30;;;;;;;33.55;32.75;100085.88;5063645;28;20497;-59
2023/09/15 13:55:18;;;;;;;2.90;2.23;;;;;;;33.67;32.55;100086.78;5053791;28;20040;-56
2023/09/15 13:57:43;;;;;;;3.57;2.53;;;;;;;32.45;33.64;100079.00;5064926;28;20035;-60
2023/09/15 14:00:09;;;;;;;3.07;2.60;;;;;;;31.96;34.46;100068.03;5061997;28;20104;-56
2023/09/15 14:02:35;;;;;;;3.43;2.23;;;;;;;31.33;35.76;100071.97;5062347;28;20033;-55
2023/09/15 14:05:03;;;;;;;3.00;2.60;;;;;;;31.36;35.77;100079.56;5064515;28;20039;-54
2023/09/15 14:07:30;;;;;;;3.05;2.75;;;;;;;30.43;38.11;100074.66;5062955;28;20124;-56
2023/09/15 14:09:55;;;;;;;;;;;;;;;30.40;38.02;100069.78;5063180;28;20037;-57
2023/09/15 14:12:21;;;;;;;4.00;2.43;;;;;;;30.46;38.07;100067.75;5062550;28;19982;-56
2023/09/15 14:14:46;;;;;;;2.80;2.17;;;;;;;30.25;38.19;100064.63;5062446;28;20029;-55
2023/09/15 14:17:12;;;;;;;3.35;2.42;;;;;;;30.16;38.28;100061.00;5062854;28;20047;-57
2023/09/15 14:19:37;;;;;;;4.20;2.60;;;;;;;30.06;38.84;100063.91;5063853;28;20106;-55
2023/09/15 14:22:03;;;;;;;3.00;2.60;;;;;;;29.77;39.21;100067.00;5062472;28;20064;-60
2023/09/15 14:24:32;;;;;;;2.85;2.55;;;;;;;29.59;39.07;100061.28;5062456;28;20041;-56
2023/09/15 14:26:58;;;;;;;2.55;2.30;;;;;;;28.96;40.25;100056.38;5062959;28;20048;-58
2023/09/15 14:29:23;;;;;;;4.20;2.63;;;;;;;29.01;40.29;100045.31;5064286;28;20134;-57
2023/09/15 14:31:49;;;;;;;2.50;2.20;;;;;;;28.98;40.93;100039.63;5062137;28;20041;-57
2023/09/15 14:34:15;;;;;;;2.72;2.53;;;;;;;28.65;41.43;100031.38;5063109;28;20032;-58
2023/09/15 14:36:41;;;;;;;3.25;2.78;;;;;;;28.79;41.62;100040.44;5063842;28;20029;-58
2023/09/15 14:39:07;;;;;;;3.30;2.40;;;;;;;28.74;41.52;100036.97;5044270;28;20373;-58
2023/09/15 14:41:32;;;;;;;6.53;2.92;;;;;;;28.71;41.64;100034.84;5063553;28;20082;-57
2023/09/15 14:43:58;;;;;;;3.30;2.42;;;;;;;28.62;41.67;100035.50;5063043;28;20036;-57
2023/09/15 14:46:23;;;;;;;4.75;2.65;;;;;;;28.66;41.71;100025.59;5061862;28;20051;-56
2023/09/15 14:48:49;;;;;;;3.05;2.47;;;;;;;28.20;42.38;100027.38;5064411;28;20037;-56
2023/09/15 14:51:17;;;;;;;5.28;2.53;;;;;;;28.28;42.34;100026.69;5070153;28;20049;-58
2023/09/15 14:53:43;;;;;;;3.17;2.50;;;;;;;28.20;42.80;100025.44;5073027;28;20111;-56
2023/09/15 14:56:08;;;;;;;3.65;2.63;;;;;;;28.12;43.12;100028.84;5073133;28;20127;-59
2023/09/15 14:58:33;;;;;;;3.15;2.85;;;;;;;28.18;42.53;100027.66;5073136;28;20043;-53
2023/09/15 15:00:59;;;;;;;3.65;2.67;;;;;;;28.06;42.45;100028.09;5072992;28;20040;-57
2023/09/15 15:03:25;;;;;;;4.30;2.75;;;;;;;27.88;43.07;100030.78;5072703;28;20041;-57
2023/09/15 15:05:50;;;;;;;2.72;2.38;;;;;;;28.02;43.33;100029.78;5072030;28;20044;-53
2023/09/15 15:08:15;;;;;;;2.70;2.50;;;;;;;27.90;42.63;100026.66;5073037;28;20041;-56
2023/09/15 15:10:41;;;;;;;3.33;2.50;;;;;;;27.77;43.20;100014.50;5072808;28;20118;-56
2023/09/15 15:13:06;;;;;;;2.63;2.38;;;;;;;27.82;43.46;100017.19;5072593;28;20064;-57
2023/09/15 15:15:44;;;;;;;4.53;2.45;;;;;;;27.77;43.69;100009.03;5072756;28;20645;-58
2023/09/15 15:18:15;;;;;;;2.70;2.40;;;;;;;27.70;43.58;100003.09;5072735;28;20510;-54
2023/09/15 15:20:40;;;;;;;3.47;2.35;;;;;;;27.69;43.82;100004.22;5072549;28;20043;-58
2023/09/15 15:23:06;;;;;;;7.65;2.70;;;;;;;27.65;43.90;100003.16;5072413;28;20024;-54
2023/09/15 15:25:31;;;;;;;2.95;2.25;;;;;;;27.58;44.22;99997.19;5072497;28;20075;-55
2023/09/15 15:27:56;;;;;;;3.17;2.78;;;;;;;27.61;44.23;99999.34;5057101;28;20041;-57
2023/09/15 15:30:24;;;;;;;4.18;2.50;;;;;;;27.39;44.41;99997.16;5052549;28;20128;-56
2023/09/15 15:32:49;;;;;;;;;;;;;;;27.49;44.64;99993.47;5052593;28;20063;-58
2023/09/15 15:35:15;;;;;;;4.47;2.83;;;;;;;27.47;44.92;99993.78;5052426;28;19922;-59
2023/09/15 15:37:40;;;;;;;3.53;2.33;;;;;;;27.49;45.02;99985.28;5052396;28;20036;-57
2023/09/15 15:40:07;;;;;;;3.13;2.20;;;;;;;27.34;45.36;99986.28;5057684;28;20487;-56
2023/09/15 15:42:33;;;;;;;2.67;2.40;;;;;;;27.46;45.23;99996.81;5052058;28;20037;-56